Time;durP1;ratioP1;P1;durP2;ratioP2;P2;SDS_P1;SDS_P2;PMS_P1;PMS_P2;Temp;Humidity;BMP_temperature;BMP_pressure;BME280_temperature;BME280_humidity;BME280_pressure;Samples;Min_cycle;Max_cycle;Signal;HPM_P1;HPM_P2
2022/01/30 00:00:31;;;;;;;14.52;7.38;;;;;;;;;;2113975;28;20171;-50
2022/01/30 00:01:32;;;;;;;13.60;6.47;;;;;;;;;;2111957;28;20270;-51
2022/01/30 00:02:33;;;;;;;15.82;7.20;;;;;;;;;;2106382;28;20548;-51
2022/01/30 00:03:35;;;;;;;15.77;8.23;;;;;;;;;;2106504;28;20127;-53
2022/01/30 00:04:36;;;;;;;13.93;6.70;;;;;;;;;;2112269;28;20135;-49
2022/01/30 00:05:37;;;;;;;12.37;5.53;;;;;;;;;;2114897;28;20424;-46
2022/01/30 00:06:38;;;;;;;15.32;6.13;;;;;;;;;;2115185;28;20568;-47
2022/01/30 00:07:40;;;;;;;13.63;6.40;;;;;;;;;;2107551;28;20072;-46
2022/01/30 00:08:41;;;;;;;18.75;8.32;;;;;;;;;;2106318;28;20702;-47
2022/01/30 00:09:42;;;;;;;15.25;6.22;;;;;;;;;;2108257;28;20486;-47
2022/01/30 00:10:44;;;;;;;11.95;7.20;;;;;;;;;;2112596;28;20043;-48
2022/01/30 00:11:49;;;;;;;;;;;;;;;;;;2115292;28;20082;-47
2022/01/30 00:12:54;;;;;;;14.00;5.05;;;;;;;;;;2112268;28;20096;-48
2022/01/30 00:13:55;;;;;;;11.52;5.80;;;;;;;;;;2106296;28;20139;-48
2022/01/30 00:14:57;;;;;;;12.98;6.00;;;;;;;;;;2106249;28;20075;-46
2022/01/30 00:16:03;;;;;;;12.00;6.90;;;;;;;;;;2109831;28;20131;-47
2022/01/30 00:17:10;;;;;;;14.50;7.22;;;;;;;;;;2114557;28;20500;-46
2022/01/30 00:18:24;;;;;;;9.63;5.60;;;;;;;;;;2114083;28;20051;-46
2022/01/30 00:19:32;;;;;;;14.75;6.10;;;;;;;;;;2105996;28;20434;-47
2022/01/30 00:20:35;;;;;;;13.98;6.95;;;;;;;;;;2106324;28;20073;-47
2022/01/30 00:21:40;;;;;;;13.55;6.80;;;;;;;;;;2106382;28;20075;-47
2022/01/30 00:22:48;;;;;;;12.60;6.38;;;;;;;;;;2106388;28;20098;-47
2022/01/30 00:23:55;;;;;;;14.57;7.63;;;;;;;;;;2108268;28;20555;-45
2022/01/30 00:25:00;;;;;;;12.07;6.47;;;;;;;;;;2113225;28;20130;-46
2022/01/30 00:26:03;;;;;;;10.60;5.80;;;;;;;;;;2114487;28;20525;-47
2022/01/30 00:27:11;;;;;;;12.85;6.68;;;;;;;;;;2111490;28;20135;-47
2022/01/30 00:28:14;;;;;;;13.88;6.30;;;;;;;;;;2114680;28;20043;-47
2022/01/30 00:29:15;;;;;;;16.45;6.97;;;;;;;;;;2114646;28;20126;-47
2022/01/30 00:30:17;;;;;;;12.88;6.75;;;;;;;;;;2111284;28;20086;-46
2022/01/30 00:31:20;;;;;;;;;;;;;;;;;;2114942;28;20458;-47
2022/01/30 00:32:26;;;;;;;11.63;5.90;;;;;;;;;;2113260;28;20055;-46
2022/01/30 00:33:47;;;;;;;11.45;5.30;;;;;;;;;;2105833;28;20044;-46
2022/01/30 00:34:48;;;;;;;11.35;5.55;;;;;;;;;;2106241;28;20079;-48
2022/01/30 00:35:49;;;;;;;11.23;6.10;;;;;;;;;;2111126;28;20401;-47
2022/01/30 00:36:50;;;;;;;11.93;6.32;;;;;;;;;;2114655;28;20183;-47
2022/01/30 00:37:52;;;;;;;12.27;5.37;;;;;;;;;;2115411;28;20051;-46
2022/01/30 00:39:09;;;;;;;11.35;6.50;;;;;;;;;;2112308;28;20051;-46
2022/01/30 00:40:10;;;;;;;14.45;6.65;;;;;;;;;;2114647;28;20047;-47
2022/01/30 00:41:12;;;;;;;13.00;6.78;;;;;;;;;;2111597;28;20401;-46
2022/01/30 00:42:14;;;;;;;15.93;7.20;;;;;;;;;;2106141;28;20146;-46
2022/01/30 00:43:17;;;;;;;14.68;7.25;;;;;;;;;;2106510;28;20048;-48
2022/01/30 00:44:18;;;;;;;14.32;6.82;;;;;;;;;;2108383;28;20181;-51
2022/01/30 00:45:20;;;;;;;11.18;5.97;;;;;;;;;;2114545;28;20516;-50
2022/01/30 00:46:21;;;;;;;14.20;6.65;;;;;;;;;;2113933;28;20138;-52
2022/01/30 00:47:22;;;;;;;12.93;6.40;;;;;;;;;;2106827;28;20044;-53
2022/01/30 00:48:23;;;;;;;13.27;6.33;;;;;;;;;;2106158;28;20048;-51
2022/01/30 00:49:24;;;;;;;14.48;7.50;;;;;;;;;;2108098;28;20192;-50
2022/01/30 00:50:26;;;;;;;10.23;5.60;;;;;;;;;;2112732;28;20565;-51
2022/01/30 00:51:27;;;;;;;12.77;7.07;;;;;;;;;;2114373;28;20047;-51
2022/01/30 00:52:28;;;;;;;14.15;7.18;;;;;;;;;;2112374;28;20051;-49
2022/01/30 00:53:29;;;;;;;14.57;6.38;;;;;;;;;;2113867;28;20119;-51
2022/01/30 00:54:31;;;;;;;13.20;6.25;;;;;;;;;;2114491;28;20047;-51
2022/01/30 00:55:32;;;;;;;13.00;6.45;;;;;;;;;;2112456;28;20543;-53
2022/01/30 00:56:33;;;;;;;12.63;5.95;;;;;;;;;;2114529;28;20058;-47
2022/01/30 00:57:34;;;;;;;14.60;7.57;;;;;;;;;;2114400;28;20503;-51
2022/01/30 00:58:35;;;;;;;16.33;7.60;;;;;;;;;;2112684;28;20050;-50
2022/01/30 00:59:36;;;;;;;13.90;6.82;;;;;;;;;;2114449;28;20527;-51
2022/01/30 01:00:37;;;;;;;15.05;9.48;;;;;;;;;;2111873;28;20188;-50
2022/01/30 01:01:39;;;;;;;14.65;9.13;;;;;;;;;;2106722;28;20100;-50
2022/01/30 01:02:40;;;;;;;15.02;7.18;;;;;;;;;;2106157;28;20040;-49
2022/01/30 01:03:42;;;;;;;12.82;5.82;;;;;;;;;;2109193;28;20456;-49
2022/01/30 01:04:43;;;;;;;12.45;6.47;;;;;;;;;;2114439;28;20044;-49
2022/01/30 01:05:44;;;;;;;14.57;7.53;;;;;;;;;;2114374;28;20188;-51
2022/01/30 01:06:49;;;;;;;11.55;5.82;;;;;;;;;;2108971;28;20497;-50
2022/01/30 01:07:53;;;;;;;10.38;6.45;;;;;;;;;;2114517;28;20123;-49
2022/01/30 01:08:58;;;;;;;12.23;5.88;;;;;;;;;;2111050;28;20127;-51
2022/01/30 01:10:06;;;;;;;18.98;7.55;;;;;;;;;;2112666;28;20535;-52
2022/01/30 01:11:27;;;;;;;15.27;7.13;;;;;;;;;;2114239;28;20079;-53
2022/01/30 01:13:00;;;;;;;11.20;6.15;;;;;;;;;;2111260;28;20075;-50
2022/01/30 01:20:51;;;;;;;13.07;6.55;;;;;;;;;;2114476;28;20059;-51
2022/01/30 01:23:48;;;;;;;10.20;5.70;;;;;;;;;;2081881;28;20076;-53
2022/01/30 01:24:50;;;;;;;10.63;6.25;;;;;;;;;;2088213;28;20073;-49
2022/01/30 01:25:51;;;;;;;13.77;6.20;;;;;;;;;;2085417;28;20621;-51
2022/01/30 01:26:53;;;;;;;11.35;6.53;;;;;;;;;;2093736;28;20512;-52
2022/01/30 01:27:53;;;;;;;9.35;4.95;;;;;;;;;;2109531;28;20040;-52
2022/01/30 01:28:55;;;;;;;12.00;5.30;;;;;;;;;;2112262;28;20457;-51
2022/01/30 01:29:55;;;;;;;8.20;5.20;;;;;;;;;;2111961;28;20074;-51
2022/01/30 01:30:57;;;;;;;10.15;5.72;;;;;;;;;;2105866;28;20048;-51
2022/01/30 01:31:58;;;;;;;9.30;5.90;;;;;;;;;;2108714;28;20054;-52
2022/01/30 01:33:02;;;;;;;12.02;5.30;;;;;;;;;;2105777;28;20414;-50
2022/01/30 01:34:20;;;;;;;10.43;6.00;;;;;;;;;;2105829;28;20138;-53
2022/01/30 01:35:21;;;;;;;10.63;5.93;;;;;;;;;;2106909;28;20189;-52
2022/01/30 01:36:22;;;;;;;6.38;4.43;;;;;;;;;;2105756;28;20147;-52
2022/01/30 01:37:24;;;;;;;9.25;5.15;;;;;;;;;;2108765;28;20502;-47
2022/01/30 01:38:25;;;;;;;10.98;6.40;;;;;;;;;;2106631;28;20481;-46
2022/01/30 01:39:26;;;;;;;12.00;5.97;;;;;;;;;;2105777;28;20048;-47
2022/01/30 01:40:27;;;;;;;10.32;5.05;;;;;;;;;;2108700;28;20083;-47
2022/01/30 01:41:31;;;;;;;11.90;5.45;;;;;;;;;;2105695;28;20504;-46
2022/01/30 01:42:34;;;;;;;10.50;5.63;;;;;;;;;;2105756;28;20079;-47
2022/01/30 01:43:36;;;;;;;9.95;5.95;;;;;;;;;;2110887;28;20174;-47
2022/01/30 01:44:41;;;;;;;11.68;5.78;;;;;;;;;;2114219;28;20056;-47
2022/01/30 01:45:42;;;;;;;10.07;4.50;;;;;;;;;;2113793;28;20078;-47
2022/01/30 01:46:45;;;;;;;10.40;5.30;;;;;;;;;;2111579;28;20126;-47
2022/01/30 01:47:46;;;;;;;9.02;5.25;;;;;;;;;;2114254;28;20046;-48
2022/01/30 01:48:50;;;;;;;11.80;5.35;;;;;;;;;;2112363;28;20079;-47
2022/01/30 01:49:52;;;;;;;10.25;5.05;;;;;;;;;;2105714;28;20140;-47
2022/01/30 01:50:55;;;;;;;10.35;5.45;;;;;;;;;;2105716;28;20188;-46
2022/01/30 01:52:18;;;;;;;6.97;5.00;;;;;;;;;;2109624;28;20067;-49
2022/01/30 01:53:20;;;;;;;10.00;5.05;;;;;;;;;;2114049;28;20493;-50
2022/01/30 01:54:21;;;;;;;14.02;5.18;;;;;;;;;;2112683;28;20076;-47
2022/01/30 01:55:22;;;;;;;8.40;4.60;;;;;;;;;;2106788;28;20136;-48
2022/01/30 01:56:24;;;;;;;8.90;5.43;;;;;;;;;;2105474;28;20409;-47
2022/01/30 01:57:26;;;;;;;11.98;5.38;;;;;;;;;;2105919;28;20044;-47
2022/01/30 01:58:28;;;;;;;12.00;5.07;;;;;;;;;;2113861;28;20040;-47
2022/01/30 01:59:28;;;;;;;9.18;4.82;;;;;;;;;;2114286;28;20180;-49
2022/01/30 02:00:30;;;;;;;8.38;5.25;;;;;;;;;;2112066;28;20124;-46
2022/01/30 02:01:31;;;;;;;10.63;5.93;;;;;;;;;;2107900;28;20131;-46
2022/01/30 02:02:32;;;;;;;8.70;4.77;;;;;;;;;;2106797;28;20044;-47
2022/01/30 02:03:34;;;;;;;10.50;4.75;;;;;;;;;;2110422;28;20409;-46
2022/01/30 02:04:37;;;;;;;11.23;5.25;;;;;;;;;;2113973;28;20479;-46
2022/01/30 02:05:40;;;;;;;11.27;5.03;;;;;;;;;;2111584;28;20165;-48
2022/01/30 02:06:42;;;;;;;13.32;6.10;;;;;;;;;;2106561;28;20076;-47
2022/01/30 02:09:09;;;;;;;9.98;5.07;;;;;;;;;;2107386;28;20501;-46
2022/01/30 02:10:17;;;;;;;8.68;4.57;;;;;;;;;;2105758;28;20040;-50
2022/01/30 02:11:29;;;;;;;12.25;6.18;;;;;;;;;;2106181;28;20079;-48
2022/01/30 02:12:37;;;;;;;;;;;;;;;;;;2106632;28;20135;-50
2022/01/30 02:13:55;;;;;;;14.88;4.40;;;;;;;;;;2105552;28;19979;-47
2022/01/30 02:15:12;;;;;;;10.65;4.88;;;;;;;;;;2110430;28;20094;-47
2022/01/30 02:24:33;;;;;;;8.38;4.53;;;;;;;;;;2080707;28;20430;-50
2022/01/30 02:25:39;;;;;;;9.48;5.00;;;;;;;;;;2081389;28;20558;-53
2022/01/30 02:26:43;;;;;;;8.25;4.30;;;;;;;;;;2080881;28;20128;-50
2022/01/30 02:27:44;;;;;;;11.57;5.10;;;;;;;;;;2081043;28;20156;-50
2022/01/30 02:28:45;;;;;;;7.90;4.90;;;;;;;;;;2081223;28;20041;-50
2022/01/30 02:29:46;;;;;;;10.73;5.88;;;;;;;;;;2083241;28;20216;-50
2022/01/30 02:30:55;;;;;;;11.52;6.00;;;;;;;;;;2106624;28;20505;-53
2022/01/30 02:31:58;;;;;;;9.10;5.47;;;;;;;;;;2111641;28;20176;-50
2022/01/30 02:32:59;;;;;;;10.85;5.55;;;;;;;;;;2115559;28;20093;-52
2022/01/30 02:34:00;;;;;;;12.05;5.18;;;;;;;;;;2114851;28;20047;-50
2022/01/30 02:35:01;;;;;;;9.43;5.53;;;;;;;;;;2107912;28;20080;-53
2022/01/30 02:36:02;;;;;;;8.40;5.10;;;;;;;;;;2107033;28;20056;-50
2022/01/30 02:37:05;;;;;;;9.55;5.32;;;;;;;;;;2110240;28;20511;-50
2022/01/30 02:38:12;;;;;;;8.35;5.65;;;;;;;;;;2115520;28;20055;-52
2022/01/30 02:39:15;;;;;;;9.73;5.57;;;;;;;;;;2115562;28;20493;-46
2022/01/30 02:40:16;;;;;;;9.57;5.13;;;;;;;;;;2109987;28;20071;-46
2022/01/30 02:41:17;;;;;;;9.15;5.78;;;;;;;;;;2107185;28;20481;-50
2022/01/30 02:42:22;;;;;;;14.27;5.40;;;;;;;;;;2107913;28;20127;-50
2022/01/30 02:43:29;;;;;;;8.98;5.15;;;;;;;;;;2115161;28;20039;-50
2022/01/30 02:44:36;;;;;;;9.07;5.35;;;;;;;;;;2115115;28;20065;-51
2022/01/30 02:45:43;;;;;;;10.25;5.43;;;;;;;;;;2112130;28;20152;-51
2022/01/30 02:46:46;;;;;;;9.48;4.93;;;;;;;;;;2115405;28;20043;-54
2022/01/30 02:47:58;;;;;;;10.60;5.25;;;;;;;;;;2113767;28;20269;-53
2022/01/30 02:49:11;;;;;;;11.25;5.35;;;;;;;;;;2107602;28;20497;-54
2022/01/30 02:50:19;;;;;;;11.70;5.50;;;;;;;;;;2106444;28;20127;-54
2022/01/30 02:51:22;;;;;;;9.43;4.82;;;;;;;;;;2111186;28;20126;-50
2022/01/30 02:52:23;;;;;;;12.48;4.78;;;;;;;;;;2115244;28;20047;-49
2022/01/30 02:53:31;;;;;;;8.47;4.60;;;;;;;;;;2115169;28;20047;-49
2022/01/30 02:54:32;;;;;;;9.77;5.10;;;;;;;;;;2113388;28;20062;-50
2022/01/30 02:55:33;;;;;;;11.67;5.67;;;;;;;;;;2115382;28;20047;-52
2022/01/30 02:56:34;;;;;;;13.40;6.05;;;;;;;;;;2112150;28;20320;-51
2022/01/30 02:57:36;;;;;;;11.48;5.75;;;;;;;;;;2106630;28;20573;-49
2022/01/30 02:58:37;;;;;;;9.88;5.15;;;;;;;;;;2106960;28;20103;-50
2022/01/30 02:59:39;;;;;;;9.35;5.22;;;;;;;;;;2109616;28;20079;-50
2022/01/30 03:00:40;;;;;;;10.38;5.10;;;;;;;;;;2106965;28;20048;-47
2022/01/30 03:01:41;;;;;;;9.40;4.70;;;;;;;;;;2108571;28;20048;-46
2022/01/30 03:02:43;;;;;;;8.85;4.75;;;;;;;;;;2107580;28;20391;-47
2022/01/30 03:03:44;;;;;;;7.40;4.10;;;;;;;;;;2106714;28;20386;-46
2022/01/30 03:04:45;;;;;;;8.45;4.93;;;;;;;;;;2108985;28;20172;-51
2022/01/30 03:05:46;;;;;;;11.02;5.22;;;;;;;;;;2113447;28;20079;-50
2022/01/30 03:06:47;;;;;;;7.50;4.50;;;;;;;;;;2115287;28;20122;-50
2022/01/30 03:07:48;;;;;;;8.90;4.43;;;;;;;;;;2110787;28;20048;-50
2022/01/30 03:08:50;;;;;;;10.43;5.32;;;;;;;;;;2107439;28;20135;-49
2022/01/30 03:09:51;;;;;;;12.05;5.47;;;;;;;;;;2106754;28;20052;-54
2022/01/30 03:10:52;;;;;;;10.13;4.82;;;;;;;;;;2109419;28;20123;-50
2022/01/30 03:11:53;;;;;;;11.13;5.20;;;;;;;;;;2106886;28;20048;-48
2022/01/30 03:12:54;;;;;;;9.18;5.15;;;;;;;;;;2106567;28;20131;-50
2022/01/30 03:13:55;;;;;;;8.73;4.53;;;;;;;;;;2108534;28;20044;-53
2022/01/30 03:14:56;;;;;;;8.73;5.95;;;;;;;;;;2106545;28;20123;-50
2022/01/30 03:16:00;;;;;;;11.30;5.53;;;;;;;;;;2108635;28;20390;-52
2022/01/30 03:17:01;;;;;;;10.75;5.13;;;;;;;;;;2107412;28;20059;-50
2022/01/30 03:18:03;;;;;;;8.73;4.57;;;;;;;;;;2106682;28;20060;-50
2022/01/30 03:19:04;;;;;;;10.20;5.28;;;;;;;;;;2106878;28;20078;-47
2022/01/30 03:20:06;;;;;;;11.55;5.53;;;;;;;;;;2113790;28;20043;-47
2022/01/30 03:21:07;;;;;;;8.55;4.88;;;;;;;;;;2114960;28;20085;-47
2022/01/30 03:22:08;;;;;;;9.40;4.68;;;;;;;;;;2111897;28;20079;-46
2022/01/30 03:23:09;;;;;;;10.00;5.05;;;;;;;;;;2115075;28;20139;-47
2022/01/30 03:24:11;;;;;;;11.88;4.55;;;;;;;;;;2114952;28;20241;-49
2022/01/30 03:25:12;;;;;;;11.75;5.93;;;;;;;;;;2110780;28;20052;-46
2022/01/30 03:26:14;;;;;;;9.07;4.65;;;;;;;;;;2115095;28;20521;-47
2022/01/30 03:27:15;;;;;;;;;;;;;;;;;;2115975;28;20074;-46
2022/01/30 03:28:16;;;;;;;10.73;4.78;;;;;;;;;;2111917;28;20014;-46
2022/01/30 03:29:18;;;;;;;18.87;4.50;;;;;;;;;;2115032;28;20043;-48
2022/01/30 03:30:26;;;;;;;11.18;4.68;;;;;;;;;;2111635;28;20515;-47
2022/01/30 03:31:27;;;;;;;10.05;4.72;;;;;;;;;;2106541;28;20626;-47
2022/01/30 03:32:46;;;;;;;8.05;4.50;;;;;;;;;;2107350;28;20052;-46
2022/01/30 03:33:48;;;;;;;12.05;5.43;;;;;;;;;;2111686;28;20386;-46
2022/01/30 03:34:48;;;;;;;10.65;4.80;;;;;;;;;;2114899;28;20085;-47
2022/01/30 03:35:50;;;;;;;10.70;5.70;;;;;;;;;;2114383;28;20051;-54
2022/01/30 03:36:51;;;;;;;9.60;5.30;;;;;;;;;;2107365;28;20521;-50
2022/01/30 03:37:52;;;;;;;9.48;5.93;;;;;;;;;;2106569;28;20452;-51
2022/01/30 03:38:53;;;;;;;10.52;5.50;;;;;;;;;;2109057;28;20059;-51
2022/01/30 03:39:55;;;;;;;14.75;5.45;;;;;;;;;;2113595;28;20043;-54
2022/01/30 03:40:56;;;;;;;;;;;;;;;;;;2115596;28;20082;-53
2022/01/30 03:41:57;;;;;;;10.45;4.32;;;;;;;;;;2111757;28;19966;-53
2022/01/30 03:42:58;;;;;;;6.63;4.22;;;;;;;;;;2114911;28;20486;-53
2022/01/30 03:43:59;;;;;;;13.48;5.60;;;;;;;;;;2114916;28;20079;-51
2022/01/30 03:45:00;;;;;;;9.65;5.53;;;;;;;;;;2112100;28;20055;-47
2022/01/30 03:46:01;;;;;;;11.85;5.95;;;;;;;;;;2114891;28;20051;-47
2022/01/30 03:47:03;;;;;;;10.65;5.90;;;;;;;;;;2115471;28;20083;-48
2022/01/30 03:48:04;;;;;;;12.73;6.25;;;;;;;;;;2111662;28;20048;-53
2022/01/30 03:49:05;;;;;;;12.15;6.03;;;;;;;;;;2115292;28;20075;-53
2022/01/30 03:50:07;;;;;;;12.32;5.50;;;;;;;;;;2113406;28;20101;-48
2022/01/30 03:51:07;;;;;;;11.80;6.05;;;;;;;;;;2107802;28;20071;-47
2022/01/30 03:52:09;;;;;;;10.60;5.47;;;;;;;;;;2106613;28;20458;-47
2022/01/30 03:53:11;;;;;;;12.73;6.70;;;;;;;;;;2110334;28;20476;-46
2022/01/30 03:54:12;;;;;;;12.93;5.88;;;;;;;;;;2114669;28;20051;-47
2022/01/30 03:55:14;;;;;;;10.60;6.35;;;;;;;;;;2114877;28;20320;-48
2022/01/30 03:56:15;;;;;;;9.45;5.00;;;;;;;;;;2111650;28;20130;-46
2022/01/30 03:57:16;;;;;;;10.52;5.97;;;;;;;;;;2114827;28;20040;-46
2022/01/30 03:58:19;;;;;;;10.37;6.30;;;;;;;;;;2113644;28;20043;-46
2022/01/30 03:59:20;;;;;;;10.23;4.32;;;;;;;;;;2110891;28;20130;-50
2022/01/30 04:00:21;;;;;;;9.87;5.70;;;;;;;;;;2114788;28;20044;-47
2022/01/30 04:01:23;;;;;;;9.43;4.82;;;;;;;;;;2111481;28;20079;-47
2022/01/30 04:02:24;;;;;;;11.38;6.00;;;;;;;;;;2112916;28;20390;-54
2022/01/30 04:03:25;;;;;;;11.32;5.95;;;;;;;;;;2114899;28;20093;-55
2022/01/30 04:04:27;;;;;;;15.77;6.57;;;;;;;;;;2113530;28;20040;-48
2022/01/30 04:05:28;;;;;;;10.20;5.45;;;;;;;;;;2114110;28;20056;-47
2022/01/30 04:06:29;;;;;;;13.63;6.43;;;;;;;;;;2114914;28;20475;-55
2022/01/30 04:07:31;;;;;;;11.30;6.25;;;;;;;;;;2111883;28;20508;-54
2022/01/30 04:08:32;;;;;;;12.70;6.05;;;;;;;;;;2106504;28;20574;-54
2022/01/30 04:09:33;;;;;;;12.13;5.88;;;;;;;;;;2106446;28;20125;-48
2022/01/30 04:10:36;;;;;;;11.40;6.47;;;;;;;;;;2111956;28;20845;-48
2022/01/30 04:11:37;;;;;;;10.63;5.97;;;;;;;;;;2114719;28;20096;-47
2022/01/30 04:12:39;;;;;;;12.70;6.57;;;;;;;;;;2114525;28;20139;-48
2022/01/30 04:13:40;;;;;;;12.05;6.03;;;;;;;;;;2112053;28;20078;-48
2022/01/30 04:14:42;;;;;;;11.35;5.57;;;;;;;;;;2114701;28;20055;-47
2022/01/30 04:15:44;;;;;;;13.65;6.57;;;;;;;;;;2112763;28;20083;-48
2022/01/30 04:16:46;;;;;;;11.45;5.32;;;;;;;;;;2113385;28;20127;-48
2022/01/30 04:17:47;;;;;;;12.55;5.40;;;;;;;;;;2114727;28;20135;-52
2022/01/30 04:18:48;;;;;;;11.02;5.90;;;;;;;;;;2111579;28;20122;-58
2022/01/30 04:19:49;;;;;;;16.73;6.35;;;;;;;;;;2114746;28;20127;-57
2022/01/30 04:20:51;;;;;;;10.10;5.75;;;;;;;;;;2114985;28;20092;-50
2022/01/30 04:21:52;;;;;;;10.25;5.45;;;;;;;;;;2111830;28;20047;-48
2022/01/30 04:22:53;;;;;;;12.15;6.15;;;;;;;;;;2114995;28;20054;-57
2022/01/30 04:23:54;;;;;;;12.30;6.28;;;;;;;;;;2114884;28;20533;-58
2022/01/30 04:24:55;;;;;;;10.80;5.22;;;;;;;;;;2111518;28;20040;-57
2022/01/30 04:25:57;;;;;;;11.30;5.80;;;;;;;;;;2114662;28;20055;-57
2022/01/30 04:26:58;;;;;;;12.00;6.25;;;;;;;;;;2114257;28;20099;-57
2022/01/30 04:27:59;;;;;;;12.68;6.30;;;;;;;;;;2112516;28;20132;-57
2022/01/30 04:29:01;;;;;;;11.85;5.93;;;;;;;;;;2114711;28;20126;-57
2022/01/30 04:30:02;;;;;;;10.48;5.68;;;;;;;;;;2111877;28;20519;-58
2022/01/30 04:31:04;;;;;;;10.85;5.28;;;;;;;;;;2114317;28;20044;-58
2022/01/30 04:32:05;;;;;;;11.68;6.07;;;;;;;;;;2114617;28;20105;-58
2022/01/30 04:33:07;;;;;;;13.65;5.40;;;;;;;;;;2111570;28;20158;-58
2022/01/30 04:34:08;;;;;;;10.57;5.78;;;;;;;;;;2114694;28;20071;-58
2022/01/30 04:35:13;;;;;;;10.25;5.40;;;;;;;;;;2114262;28;20097;-58
2022/01/30 04:36:20;;;;;;;10.20;5.30;;;;;;;;;;2111128;28;20084;-58
2022/01/30 04:37:27;;;;;;;13.57;6.72;;;;;;;;;;2114613;28;20085;-58
2022/01/30 04:38:36;;;;;;;11.05;5.28;;;;;;;;;;2112312;28;20382;-58
2022/01/30 04:40:10;;;;;;;11.98;5.47;;;;;;;;;;2106462;28;20130;-49
2022/01/30 04:41:35;;;;;;;9.10;5.50;;;;;;;;;;2107979;28;20051;-46
2022/01/30 04:52:22;;;;;;;10.98;4.97;;;;;;;;;;2114592;28;20089;-47
2022/01/30 04:53:37;;;;;;;13.00;4.88;;;;;;;;;;2106879;28;20071;-46
2022/01/30 04:57:37;;;;;;;13.35;5.53;;;;;;;;;;2106064;28;20050;-57
2022/01/30 04:58:55;;;;;;;8.65;3.85;;;;;;;;;;2110797;28;20134;-58
2022/01/30 05:00:08;;;;;;;8.05;5.25;;;;;;;;;;2114398;28;20045;-58
2022/01/30 05:01:14;;;;;;;7.90;4.80;;;;;;;;;;2111994;28;20136;-58
2022/01/30 05:02:37;;;;;;;12.73;5.65;;;;;;;;;;2106154;28;20130;-58
2022/01/30 05:03:55;;;;;;;9.95;5.45;;;;;;;;;;2108159;28;20581;-58
2022/01/30 05:05:11;;;;;;;10.23;4.70;;;;;;;;;;2113116;28;20471;-58
2022/01/30 05:06:15;;;;;;;10.80;5.47;;;;;;;;;;2114519;28;20071;-57
2022/01/30 05:07:28;;;;;;;12.50;6.88;;;;;;;;;;2110330;28;20075;-58
2022/01/30 05:08:29;;;;;;;9.88;5.47;;;;;;;;;;2114391;28;20083;-58
2022/01/30 05:09:30;;;;;;;13.50;6.07;;;;;;;;;;2112381;28;20128;-58
2022/01/30 05:10:32;;;;;;;9.70;5.93;;;;;;;;;;2113192;28;20131;-57
2022/01/30 05:11:33;;;;;;;12.73;6.47;;;;;;;;;;2114656;28;20136;-58
2022/01/30 05:12:42;;;;;;;12.13;6.82;;;;;;;;;;2112326;28;20182;-57
2022/01/30 05:13:47;;;;;;;11.48;6.05;;;;;;;;;;2114293;28;20131;-57
2022/01/30 05:14:48;;;;;;;9.60;5.68;;;;;;;;;;2114635;28;20075;-58
2022/01/30 05:15:49;;;;;;;12.95;7.00;;;;;;;;;;2110977;28;20104;-58
2022/01/30 05:16:51;;;;;;;12.88;6.53;;;;;;;;;;2114448;28;20090;-58
2022/01/30 05:17:52;;;;;;;14.85;7.13;;;;;;;;;;2114699;28;20047;-58
2022/01/30 05:18:53;;;;;;;11.80;7.00;;;;;;;;;;2112108;28;20374;-58
2022/01/30 05:19:55;;;;;;;11.60;6.05;;;;;;;;;;2114378;28;20188;-58
2022/01/30 05:20:56;;;;;;;14.57;6.78;;;;;;;;;;2112329;28;20438;-57
2022/01/30 05:21:57;;;;;;;11.48;5.72;;;;;;;;;;2105736;28;20450;-58
2022/01/30 05:22:59;;;;;;;10.38;6.18;;;;;;;;;;2105918;28;20051;-57
2022/01/30 05:24:00;;;;;;;11.25;6.07;;;;;;;;;;2109427;28;20075;-57
2022/01/30 05:25:02;;;;;;;13.43;7.05;;;;;;;;;;2114369;28;20079;-58
2022/01/30 05:26:05;;;;;;;12.50;6.45;;;;;;;;;;2113730;28;20560;-58
2022/01/30 05:27:07;;;;;;;12.20;6.75;;;;;;;;;;2107357;28;20079;-57
2022/01/30 05:28:09;;;;;;;13.00;6.68;;;;;;;;;;2105940;28;20123;-57
2022/01/30 05:29:10;;;;;;;;;;;;;;;;;;2107115;28;20067;-58
2022/01/30 05:30:11;;;;;;;9.00;4.70;;;;;;;;;;2111979;28;20352;-58
2022/01/30 05:31:13;;;;;;;10.90;5.60;;;;;;;;;;2114371;28;20081;-58
2022/01/30 05:32:14;;;;;;;12.60;6.82;;;;;;;;;;2112333;28;20036;-58
2022/01/30 05:33:16;;;;;;;13.32;5.57;;;;;;;;;;2105739;28;20066;-58
2022/01/30 05:34:17;;;;;;;9.27;5.53;;;;;;;;;;2105798;28;20079;-57
2022/01/30 05:35:18;;;;;;;8.82;4.13;;;;;;;;;;2109978;28;20075;-57
2022/01/30 05:36:20;;;;;;;10.45;5.35;;;;;;;;;;2114218;28;20132;-57
2022/01/30 05:37:21;;;;;;;12.38;6.15;;;;;;;;;;2114356;28;20131;-58
2022/01/30 05:38:23;;;;;;;10.32;6.25;;;;;;;;;;2111182;28;20052;-58
2022/01/30 05:39:24;;;;;;;11.45;6.65;;;;;;;;;;2114158;28;20121;-58
2022/01/30 05:40:26;;;;;;;12.30;6.55;;;;;;;;;;2114337;28;20123;-58
2022/01/30 05:41:27;;;;;;;15.25;7.50;;;;;;;;;;2111240;28;20147;-47
2022/01/30 05:42:32;;;;;;;12.48;6.82;;;;;;;;;;2114397;28;20544;-46
2022/01/30 05:43:34;;;;;;;12.45;6.85;;;;;;;;;;2112252;28;20135;-47
2022/01/30 05:44:44;;;;;;;10.38;6.05;;;;;;;;;;2112741;28;20389;-45
2022/01/30 05:45:50;;;;;;;13.02;6.68;;;;;;;;;;2114029;28;20488;-46
2022/01/30 05:46:54;;;;;;;12.55;6.82;;;;;;;;;;2111060;28;20048;-46
2022/01/30 05:47:59;;;;;;;11.77;6.88;;;;;;;;;;2114138;28;20135;-45
2022/01/30 05:49:01;;;;;;;14.10;6.70;;;;;;;;;;2114973;28;20672;-49
2022/01/30 05:50:03;;;;;;;13.88;7.43;;;;;;;;;;2106502;28;20079;-46
2022/01/30 05:51:04;;;;;;;11.98;6.10;;;;;;;;;;2105795;28;20075;-46
2022/01/30 05:52:05;;;;;;;15.40;9.77;;;;;;;;;;2107067;28;20055;-45
2022/01/30 05:53:06;;;;;;;17.42;8.38;;;;;;;;;;2112935;28;20044;-45
2022/01/30 05:54:07;;;;;;;15.40;7.13;;;;;;;;;;2114053;28;20166;-46
2022/01/30 05:55:08;;;;;;;14.48;7.32;;;;;;;;;;2112119;28;20072;-49
2022/01/30 05:56:11;;;;;;;14.20;8.17;;;;;;;;;;2114067;28;20614;-45
2022/01/30 05:57:12;;;;;;;12.88;7.18;;;;;;;;;;2114024;28;20131;-46
2022/01/30 05:58:13;;;;;;;16.80;9.40;;;;;;;;;;2108759;28;20067;-46
2022/01/30 05:59:15;;;;;;;15.57;9.27;;;;;;;;;;2115015;28;20044;-46
2022/01/30 06:00:16;;;;;;;17.70;10.05;;;;;;;;;;2115621;28;20469;-46
2022/01/30 06:01:17;;;;;;;15.65;8.35;;;;;;;;;;2108079;28;20071;-46
2022/01/30 06:02:18;;;;;;;13.63;8.00;;;;;;;;;;2107322;28;20071;-46
2022/01/30 06:03:19;;;;;;;14.23;7.68;;;;;;;;;;2109741;28;20047;-45
2022/01/30 06:04:20;;;;;;;12.47;6.40;;;;;;;;;;2114356;28;20047;-45
2022/01/30 06:05:23;;;;;;;15.55;8.30;;;;;;;;;;2115577;28;20170;-46
2022/01/30 06:06:25;;;;;;;15.77;8.13;;;;;;;;;;2112426;28;20495;-46
2022/01/30 06:07:29;;;;;;;17.42;7.85;;;;;;;;;;2107237;28;20079;-46
2022/01/30 06:08:41;;;;;;;13.07;7.32;;;;;;;;;;2107054;28;20097;-46
2022/01/30 06:09:42;;;;;;;15.75;7.57;;;;;;;;;;2111408;28;20638;-46
2022/01/30 06:10:43;;;;;;;13.27;6.40;;;;;;;;;;2115496;28;20078;-47
2022/01/30 06:11:44;;;;;;;15.13;7.60;;;;;;;;;;2110686;28;20575;-58
2022/01/30 06:12:50;;;;;;;16.17;7.18;;;;;;;;;;2113227;28;20782;-58
2022/01/30 06:13:51;;;;;;;15.18;7.80;;;;;;;;;;2115636;28;20127;-58
2022/01/30 06:14:53;;;;;;;17.55;8.35;;;;;;;;;;2114194;28;20123;-46
2022/01/30 06:15:54;;;;;;;12.25;8.57;;;;;;;;;;2115186;28;20040;-46
2022/01/30 06:16:55;;;;;;;18.75;9.05;;;;;;;;;;2115385;28;20381;-46
2022/01/30 06:17:57;;;;;;;15.07;8.30;;;;;;;;;;2112239;28;20078;-46
2022/01/30 06:18:57;;;;;;;15.30;8.88;;;;;;;;;;2115507;28;20130;-46
2022/01/30 06:19:59;;;;;;;16.93;8.10;;;;;;;;;;2114198;28;20047;-47
2022/01/30 06:21:01;;;;;;;13.50;7.22;;;;;;;;;;2111044;28;20135;-45
2022/01/30 06:22:02;;;;;;;13.63;7.82;;;;;;;;;;2115331;28;20062;-46
2022/01/30 06:23:03;;;;;;;14.60;8.60;;;;;;;;;;2114496;28;20145;-45
2022/01/30 06:24:05;;;;;;;18.17;8.17;;;;;;;;;;2113438;28;20043;-47
2022/01/30 06:25:06;;;;;;;14.40;7.60;;;;;;;;;;2115421;28;20079;-46
2022/01/30 06:26:07;;;;;;;11.95;7.25;;;;;;;;;;2113320;28;20048;-46
2022/01/30 06:27:08;;;;;;;14.00;8.15;;;;;;;;;;2106858;28;20131;-47
2022/01/30 06:28:09;;;;;;;16.50;7.95;;;;;;;;;;2106903;28;20052;-46
2022/01/30 06:29:10;;;;;;;16.92;7.70;;;;;;;;;;2111936;28;20130;-58
2022/01/30 06:30:12;;;;;;;14.98;7.47;;;;;;;;;;2115504;28;20086;-47
2022/01/30 06:31:13;;;;;;;;;;;;;;;;;;2115277;28;20075;-46
2022/01/30 06:32:16;;;;;;;13.45;5.97;;;;;;;;;;2112579;28;19947;-46
2022/01/30 06:33:17;;;;;;;12.60;5.88;;;;;;;;;;2115355;28;20047;-46
2022/01/30 06:34:18;;;;;;;17.92;7.82;;;;;;;;;;2114062;28;20127;-58
2022/01/30 06:35:19;;;;;;;14.87;7.97;;;;;;;;;;2112475;28;20047;-59
2022/01/30 06:36:20;;;;;;;16.85;8.38;;;;;;;;;;2115324;28;20177;-58
2022/01/30 06:37:21;;;;;;;14.15;7.72;;;;;;;;;;2113425;28;20497;-59
2022/01/30 06:38:22;;;;;;;15.70;7.70;;;;;;;;;;2114184;28;20087;-59
2022/01/30 06:39:23;;;;;;;16.00;8.45;;;;;;;;;;2115547;28;20489;-59
2022/01/30 06:40:25;;;;;;;14.48;8.73;;;;;;;;;;2112697;28;20071;-58
2022/01/30 06:41:26;;;;;;;14.82;7.22;;;;;;;;;;2106815;28;20127;-59
2022/01/30 06:42:29;;;;;;;16.13;8.63;;;;;;;;;;2106990;28;20051;-59
2022/01/30 06:43:29;;;;;;;16.67;7.93;;;;;;;;;;2110874;28;20075;-58
2022/01/30 06:44:32;;;;;;;13.23;7.67;;;;;;;;;;2106844;28;20048;-58
2022/01/30 06:45:35;;;;;;;15.05;8.77;;;;;;;;;;2109011;28;20372;-58
2022/01/30 06:46:36;;;;;;;12.45;6.80;;;;;;;;;;2111713;28;20071;-58